Time;durP1;ratioP1;P1;durP2;ratioP2;P2;SDS_P1;SDS_P2;PMS_P1;PMS_P2;Temp;Humidity;BMP_temperature;BMP_pressure;BME280_temperature;BME280_humidity;BME280_pressure;Samples;Min_cycle;Max_cycle;Signal;HPM_P1;HPM_P2
2021/03/28 00:01:04;;;;;;;17.42;14.02;;;;;;;6.92;59.40;101662.38;4996952;28;20464;-82
2021/03/28 00:03:46;;;;;;;15.65;12.52;;;;;;;6.86;59.68;101664.50;4935645;29;20039;-80
2021/03/28 00:06:12;;;;;;;15.60;12.38;;;;;;;6.47;59.74;101601.88;4935928;29;20150;-79
2021/03/28 00:08:40;;;;;;;20.35;12.93;;;;;;;6.82;60.51;101665.09;4935832;29;20079;-81
2021/03/28 00:11:17;;;;;;;20.88;13.38;;;;;;;6.73;60.12;101655.06;4919706;29;20150;-81
2021/03/28 00:13:53;;;;;;;24.85;15.52;;;;;;;6.67;60.17;101663.97;4935338;29;20039;-80
2021/03/28 00:16:23;;;;;;;35.90;19.15;;;;;;;6.61;60.80;101667.00;4935102;29;20031;-80
2021/03/28 00:18:52;;;;;;;151.00;53.00;;;;;;;6.62;60.60;101666.22;4919081;29;20490;-81
2021/03/28 00:21:28;;;;;;;77.53;33.30;;;;;;;6.55;60.53;101658.84;4917369;29;20505;-80
2021/03/28 00:24:12;;;;;;;61.42;30.02;;;;;;;6.51;61.62;101662.00;4932601;29;20048;-81
2021/03/28 00:27:19;;;;;;;27.67;19.85;;;;;;;6.51;61.97;101662.88;4924565;29;20036;-80
2021/03/28 00:29:54;;;;;;;29.95;22.92;;;;;;;6.53;61.76;101662.97;4907094;29;20100;-82
2021/03/28 00:32:24;;;;;;;23.20;18.15;;;;;;;6.51;62.12;101664.56;4905716;29;20028;-80
2021/03/28 00:35:07;;;;;;;27.40;18.92;;;;;;;6.25;62.40;101656.72;4915217;29;20072;-80
2021/03/28 00:37:33;;;;;;;27.02;20.27;;;;;;;6.27;62.28;101662.88;4913138;29;20471;-80
2021/03/28 00:40:16;;;;;;;27.17;19.30;;;;;;;6.33;62.41;101677.84;4920874;28;20133;-80
2021/03/28 00:42:46;;;;;;;21.58;17.60;;;;;;;6.31;62.79;101670.00;4983812;28;20062;-81
2021/03/28 00:45:35;;;;;;;24.88;19.15;;;;;;;6.36;61.85;101675.47;4983736;28;20034;-81
2021/03/28 00:48:06;;;;;;;22.45;19.20;;;;;;;6.42;61.82;101677.59;4990911;28;20042;-80
2021/03/28 00:50:39;;;;;;;25.23;19.48;;;;;;;6.42;61.86;101675.03;5000542;28;20036;-79
2021/03/28 00:53:09;;;;;;;25.88;17.30;;;;;;;6.46;61.94;101674.47;5014729;28;20042;-79
2021/03/28 00:55:39;;;;;;;;;;;;;;;6.48;61.93;101676.38;5015078;28;20033;-81
2021/03/28 00:58:17;;;;;;;;;;;;;;;6.43;61.91;101675.16;5014697;28;20012;-80
2021/03/28 01:01:28;;;;;;;23.30;17.70;;;;;;;6.42;62.22;101680.19;5013482;28;19917;-78
2021/03/28 01:03:57;;;;;;;22.08;16.23;;;;;;;6.33;62.58;101680.41;4982484;28;20062;-79
2021/03/28 01:06:38;;;;;;;41.92;26.60;;;;;;;6.27;62.21;101680.81;4969273;28;20547;-78
2021/03/28 01:09:34;;;;;;;30.23;23.35;;;;;;;6.12;62.05;101661.75;4975623;28;20408;-79
2021/03/28 01:12:40;;;;;;;25.98;19.45;;;;;;;6.08;62.63;101678.56;4990388;28;20062;-79
2021/03/28 01:15:23;;;;;;;22.95;17.17;;;;;;;5.36;62.88;101561.28;4991680;28;20596;-80
2021/03/28 01:18:21;;;;;;;22.05;15.38;;;;;;;5.75;62.94;101670.09;4991473;28;20117;-80
2021/03/28 01:21:30;;;;;;;22.25;16.90;;;;;;;5.48;63.75;101677.47;4988514;28;20508;-78
2021/03/28 01:24:11;;;;;;;20.90;16.92;;;;;;;5.34;63.94;101688.31;4952858;29;20035;-78
2021/03/28 01:26:49;;;;;;;20.95;16.08;;;;;;;5.24;64.13;101679.00;4949713;29;20039;-79
2021/03/28 01:29:31;;;;;;;20.90;15.63;;;;;;;5.06;64.56;101678.47;4934737;29;20059;-79
2021/03/28 01:32:06;;;;;;;21.07;17.20;;;;;;;4.93;64.88;101676.59;4949509;29;20035;-79
2021/03/28 01:34:53;;;;;;;22.27;17.53;;;;;;;4.77;65.08;101691.50;4948145;29;20477;-80
2021/03/28 01:37:30;;;;;;;24.40;18.17;;;;;;;4.58;66.15;101690.03;4949453;29;20556;-79
2021/03/28 01:40:35;;;;;;;23.77;17.57;;;;;;;4.45;66.75;101687.22;4955741;28;20418;-79
2021/03/28 01:43:54;;;;;;;25.80;18.70;;;;;;;4.43;66.89;101686.25;4923604;29;20494;-80
2021/03/28 01:46:22;;;;;;;25.75;18.40;;;;;;;4.21;67.76;101684.47;4885208;29;20543;-78
2021/03/28 01:49:08;;;;;;;24.60;18.67;;;;;;;4.16;68.37;101685.75;4869497;29;20480;-80
2021/03/28 01:51:45;;;;;;;24.43;18.97;;;;;;;3.48;68.18;101570.34;4886080;29;20041;-81
2021/03/28 01:54:17;;;;;;;24.97;19.13;;;;;;;4.14;68.00;101682.19;4882796;29;20037;-78
2021/03/28 01:57:39;;;;;;;25.00;18.67;;;;;;;4.13;67.60;101685.50;4885064;29;20111;-78
2021/03/28 02:00:23;;;;;;;27.23;19.90;;;;;;;4.01;68.34;101676.06;4897202;29;20119;-80
2021/03/28 02:02:54;;;;;;;25.23;20.17;;;;;;;3.93;68.40;101682.19;4894883;29;20111;-79
2021/03/28 02:05:48;;;;;;;25.10;19.43;;;;;;;3.80;68.80;101680.28;4879364;29;20052;-78
2021/03/28 02:08:39;;;;;;;26.93;19.00;;;;;;;3.97;68.86;101679.13;4892660;29;20044;-80
2021/03/28 02:11:30;;;;;;;25.17;19.33;;;;;;;4.08;68.67;101681.69;4867928;29;20045;-78
2021/03/28 02:14:33;;;;;;;25.73;19.00;;;;;;;4.16;67.61;101678.09;4849733;29;20467;-79
2021/03/28 02:17:26;;;;;;;22.27;18.30;;;;;;;4.27;66.40;101682.41;4866666;29;20048;-78
2021/03/28 02:20:10;;;;;;;39.97;24.93;;;;;;;4.27;66.51;101690.06;4883763;29;20124;-78
2021/03/28 02:22:38;;;;;;;22.60;17.33;;;;;;;4.19;66.47;101686.03;4902582;29;20400;-79
2021/03/28 02:25:12;;;;;;;22.53;15.47;;;;;;;4.04;66.50;101689.09;4887525;29;20047;-80
2021/03/28 02:27:44;;;;;;;176.10;62.30;;;;;;;3.58;67.21;101615.38;4888552;29;20060;-80
2021/03/28 02:30:17;;;;;;;27.70;18.07;;;;;;;3.94;67.13;101693.28;4905204;28;20416;-79
2021/03/28 02:32:46;;;;;;;26.43;17.70;;;;;;;3.91;67.59;101686.28;4951811;29;20035;-78
2021/03/28 02:35:12;;;;;;;;;;;;;;;3.46;68.12;101690.19;4949735;29;20039;-77
2021/03/28 02:38:08;;;;;;;28.87;21.03;;;;;;;3.38;69.33;101691.22;4951353;29;19965;-78
2021/03/28 02:40:36;;;;;;;28.83;20.83;;;;;;;3.49;68.69;101689.56;4949353;28;20038;-78
2021/03/28 02:43:07;;;;;;;26.80;19.43;;;;;;;3.53;69.18;101700.16;4951663;29;20453;-80
2021/03/28 02:45:35;;;;;;;26.90;20.20;;;;;;;3.45;69.59;101679.84;4949107;28;20568;-78
2021/03/28 02:48:14;;;;;;;28.03;20.83;;;;;;;3.07;70.45;101689.44;4992878;28;20083;-79
2021/03/28 02:51:05;;;;;;;28.58;20.63;;;;;;;3.15;71.35;101692.66;5052009;28;20060;-79
2021/03/28 02:54:07;;;;;;;25.73;19.67;;;;;;;3.44;70.85;101699.41;5052097;28;20021;-79
2021/03/28 02:57:12;;;;;;;27.93;20.50;;;;;;;3.29;70.22;101700.63;5050330;28;20108;-78
2021/03/28 03:00:13;;;;;;;29.57;20.13;;;;;;;3.30;70.86;101705.88;5050404;28;20407;-79
2021/03/28 03:03:19;;;;;;;24.10;19.63;;;;;;;3.42;70.75;101718.78;5006003;28;20229;-79
2021/03/28 03:06:12;;;;;;;27.53;20.00;;;;;;;3.66;70.20;101712.31;4993035;28;20053;-79
2021/03/28 03:09:09;;;;;;;25.40;19.00;;;;;;;3.78;68.85;101703.91;5009750;28;20037;-79
2021/03/28 03:11:47;;;;;;;55.93;28.07;;;;;;;3.89;67.74;101705.72;4993387;28;20038;-78
2021/03/28 03:14:24;;;;;;;26.70;20.40;;;;;;;3.87;67.88;101704.66;5009747;28;20061;-79
2021/03/28 03:16:50;;;;;;;24.87;18.07;;;;;;;3.89;67.48;101711.69;5009461;28;20033;-81
2021/03/28 03:19:44;;;;;;;25.97;18.93;;;;;;;3.91;68.03;101705.81;4992983;28;20415;-81
2021/03/28 03:22:22;;;;;;;23.77;18.67;;;;;;;3.71;68.21;101703.41;5009278;28;20053;-81
2021/03/28 03:25:38;;;;;;;27.30;19.60;;;;;;;3.61;68.43;101718.69;5008765;28;20072;-80
2021/03/28 03:28:12;;;;;;;25.10;17.73;;;;;;;3.54;68.79;101730.03;4935207;29;20039;-80
2021/03/28 03:30:56;;;;;;;28.10;19.30;;;;;;;3.49;69.56;101728.75;4951259;29;20760;-78
2021/03/28 03:33:52;;;;;;;23.57;17.93;;;;;;;3.42;69.35;101734.09;4950959;29;20047;-79
2021/03/28 03:36:36;;;;;;;25.67;19.00;;;;;;;3.21;69.94;101731.47;4951059;29;20055;-79
2021/03/28 03:39:19;;;;;;;25.47;18.40;;;;;;;3.04;70.09;101739.31;4961362;28;20039;-78
2021/03/28 03:42:06;;;;;;;27.53;19.30;;;;;;;2.89;70.52;101739.78;4970463;28;20508;-78
2021/03/28 03:45:08;;;;;;;27.10;17.97;;;;;;;2.88;70.39;101732.00;4954291;28;20030;-78
2021/03/28 03:47:44;;;;;;;28.17;19.13;;;;;;;2.55;70.89;101723.13;4970270;28;20134;-79
2021/03/28 03:50:19;;;;;;;26.30;19.20;;;;;;;2.71;70.87;101731.38;4953948;28;20500;-78
2021/03/28 03:53:07;;;;;;;24.17;18.97;;;;;;;2.90;70.75;101730.44;4953966;28;20050;-78
2021/03/28 03:55:41;;;;;;;30.33;19.73;;;;;;;2.97;71.12;101755.75;4970202;28;20117;-79
2021/03/28 03:58:15;;;;;;;28.40;19.20;;;;;;;2.75;72.02;101750.38;4970195;28;20042;-80
2021/03/28 04:01:08;;;;;;;24.40;17.67;;;;;;;2.30;73.43;101750.59;4954049;28;20133;-80
2021/03/28 04:03:53;;;;;;;25.57;18.27;;;;;;;2.33;73.56;101731.41;4969497;28;20055;-80
2021/03/28 04:06:48;;;;;;;25.53;16.87;;;;;;;2.62;72.47;101733.13;5047618;28;20060;-80
2021/03/28 04:09:38;;;;;;;24.63;17.73;;;;;;;2.81;72.12;101738.19;5050967;28;20082;-80
2021/03/28 04:12:25;;;;;;;23.03;17.60;;;;;;;2.90;71.81;101743.19;5049761;28;20392;-79
2021/03/28 04:15:18;;;;;;;24.20;16.43;;;;;;;2.99;71.37;101745.66;5049428;28;20119;-80
2021/03/28 04:18:05;;;;;;;27.50;16.73;;;;;;;2.97;71.51;101743.00;5049245;28;20032;-80
2021/03/28 04:20:59;;;;;;;21.13;15.43;;;;;;;2.79;72.02;101749.91;5041775;28;20414;-82
2021/03/28 04:23:41;;;;;;;20.60;15.70;;;;;;;2.48;73.15;101759.00;5046089;28;20029;-80
2021/03/28 04:26:24;;;;;;;24.23;17.97;;;;;;;2.26;74.33;101752.84;5044549;28;20067;-78
2021/03/28 04:29:03;;;;;;;26.00;18.00;;;;;;;2.35;74.32;101750.25;5027494;28;20073;-78
2021/03/28 04:31:40;;;;;;;24.40;17.70;;;;;;;2.65;73.96;101757.97;5047218;28;20045;-79
2021/03/28 04:34:24;;;;;;;23.93;17.27;;;;;;;2.82;73.52;101762.06;5029594;28;20041;-81
2021/03/28 04:36:56;;;;;;;23.87;17.57;;;;;;;2.94;73.14;101757.13;5030927;28;20044;-78
2021/03/28 04:39:27;;;;;;;25.63;19.20;;;;;;;3.04;72.50;101752.97;5032424;28;20115;-80
2021/03/28 04:42:23;;;;;;;24.63;17.40;;;;;;;3.06;73.07;101751.44;5032077;28;20144;-79
2021/03/28 04:45:27;;;;;;;23.57;16.73;;;;;;;3.07;72.89;101768.53;5010651;28;20037;-79
2021/03/28 04:48:15;;;;;;;24.60;16.43;;;;;;;3.05;73.19;101754.78;4898604;29;20044;-79
2021/03/28 04:51:11;;;;;;;24.50;16.77;;;;;;;3.02;73.13;101749.38;4913845;29;20541;-80
2021/03/28 04:53:42;;;;;;;24.47;17.13;;;;;;;3.10;73.19;101759.38;4913898;29;20044;-79
2021/03/28 04:56:49;;;;;;;24.57;18.47;;;;;;;3.08;73.49;101765.22;4899218;29;20109;-80
2021/03/28 04:59:20;;;;;;;28.97;19.53;;;;;;;2.61;73.49;101679.44;4857433;29;20485;-79
2021/03/28 05:02:10;;;;;;;28.47;18.87;;;;;;;3.14;73.49;101770.00;4855773;29;20517;-81
2021/03/28 05:04:56;;;;;;;27.70;19.57;;;;;;;2.98;73.17;101777.03;4860721;29;20053;-77
2021/03/28 05:07:37;;;;;;;27.83;20.03;;;;;;;2.95;73.63;101779.31;4876387;29;20551;-79
2021/03/28 05:10:40;;;;;;;27.23;19.77;;;;;;;3.01;73.75;101774.78;4873441;29;20500;-79
2021/03/28 05:13:14;;;;;;;28.97;20.43;;;;;;;2.95;73.81;101776.78;4874446;29;20503;-79
2021/03/28 05:15:58;;;;;;;27.70;20.67;;;;;;;2.56;75.85;101788.66;4888866;29;20087;-78
2021/03/28 05:18:29;;;;;;;29.60;21.90;;;;;;;2.72;76.16;101784.16;4912417;29;20059;-78
2021/03/28 05:21:21;;;;;;;30.93;23.43;;;;;;;2.91;75.58;101801.13;4897908;29;20123;-79
2021/03/28 05:24:08;;;;;;;38.00;24.73;;;;;;;3.03;75.43;101797.09;4922940;28;20660;-83
2021/03/28 05:26:51;;;;;;;54.13;35.43;;;;;;;3.07;75.99;101783.84;4976840;28;20034;-77
2021/03/28 05:29:38;;;;;;;81.20;50.80;;;;;;;3.18;76.16;101789.91;4994307;28;20510;-79
2021/03/28 05:32:25;;;;;;;52.07;34.43;;;;;;;3.37;75.62;101791.53;5050874;28;20095;-79
2021/03/28 05:35:12;;;;;;;41.63;29.10;;;;;;;3.47;75.83;101791.56;5052080;28;20092;-84
2021/03/28 05:38:05;;;;;;;36.77;27.10;;;;;;;3.59;75.89;101786.63;5050790;28;20036;-79
2021/03/28 05:41:01;;;;;;;38.00;26.77;;;;;;;3.49;75.62;101750.81;5050975;28;20463;-79
2021/03/28 05:43:26;;;;;;;33.60;24.63;;;;;;;3.86;75.73;101805.06;5048854;28;20029;-79
2021/03/28 05:46:01;;;;;;;39.90;27.27;;;;;;;3.96;76.32;101809.31;5050731;28;20033;-78
2021/03/28 05:48:52;;;;;;;116.93;55.23;;;;;;;4.03;76.63;101798.84;5050233;28;20043;-78
2021/03/28 05:51:26;;;;;;;45.63;29.73;;;;;;;4.03;76.74;101799.72;5049259;28;20032;-79
2021/03/28 05:54:13;;;;;;;34.63;25.80;;;;;;;3.78;77.62;101745.66;5050324;28;20124;-78
2021/03/28 05:57:16;;;;;;;31.17;23.47;;;;;;;4.33;77.76;101790.28;5047824;28;20032;-79
2021/03/28 06:00:15;;;;;;;30.17;21.20;;;;;;;4.37;78.04;101787.25;5052871;28;20021;-79
2021/03/28 06:03:02;;;;;;;33.17;22.03;;;;;;;4.19;78.87;101726.91;5031439;28;20107;-80
2021/03/28 06:05:46;;;;;;;29.17;22.30;;;;;;;4.71;78.35;101784.03;5031549;28;20046;-79
2021/03/28 06:08:17;;;;;;;27.97;20.90;;;;;;;4.85;78.14;101792.81;5031447;28;20091;-79
2021/03/28 06:11:34;;;;;;;24.40;17.80;;;;;;;5.07;77.65;101791.97;5031664;28;20033;-84
2021/03/28 06:14:14;;;;;;;29.20;19.33;;;;;;;5.19;77.80;101798.09;5031176;28;20103;-80
2021/03/28 06:17:08;;;;;;;25.67;19.43;;;;;;;5.39;77.15;101797.09;5031345;28;20048;-80
2021/03/28 06:19:55;;;;;;;26.25;20.70;;;;;;;5.61;76.42;101801.38;5032788;28;20030;-80
2021/03/28 06:22:58;;;;;;;25.55;19.25;;;;;;;5.84;75.85;101803.16;5031259;28;20458;-80
2021/03/28 06:26:01;;;;;;;27.02;18.17;;;;;;;6.05;75.48;101801.38;5030906;28;20025;-80
2021/03/28 06:28:57;;;;;;;24.63;18.15;;;;;;;6.28;74.37;101786.84;5031546;28;20475;-81
2021/03/28 06:31:22;;;;;;;21.35;17.00;;;;;;;6.45;73.61;101794.13;5031110;28;20030;-80
2021/03/28 06:33:53;;;;;;;21.60;16.92;;;;;;;6.57;72.70;101790.72;5029928;28;20180;-80
2021/03/28 06:36:25;;;;;;;21.42;17.48;;;;;;;6.70;71.97;101795.09;5029999;28;20044;-80
2021/03/28 06:39:03;;;;;;;22.52;16.55;;;;;;;6.86;71.00;101789.41;5013273;28;20466;-80
2021/03/28 06:41:46;;;;;;;24.50;17.20;;;;;;;7.09;70.19;101798.78;5013147;28;20137;-80
2021/03/28 06:44:35;;;;;;;28.45;20.95;;;;;;;7.21;70.48;101791.97;5013151;28;20523;-81
2021/03/28 06:47:03;;;;;;;26.23;19.50;;;;;;;7.38;70.09;101794.88;4974167;28;20034;-82
2021/03/28 06:49:59;;;;;;;24.35;18.95;;;;;;;7.60;69.36;101799.81;4973943;28;20041;-80
2021/03/28 06:52:49;;;;;;;22.92;17.48;;;;;;;7.75;68.73;101792.28;4932094;29;20051;-81
2021/03/28 06:55:33;;;;;;;24.30;18.55;;;;;;;7.78;68.81;101795.09;4932037;29;20093;-81
2021/03/28 06:58:22;;;;;;;25.80;18.20;;;;;;;7.88;68.91;101796.63;4931672;29;20036;-80
2021/03/28 07:01:00;;;;;;;26.60;18.73;;;;;;;7.98;68.91;101796.47;4931980;29;20514;-81
2021/03/28 07:03:34;;;;;;;25.27;20.15;;;;;;;8.17;69.19;101784.88;4931578;29;20042;-81
2021/03/28 07:06:32;;;;;;;24.17;17.83;;;;;;;8.32;69.15;101785.00;4931609;29;20051;-82
2021/03/28 07:09:18;;;;;;;21.35;17.38;;;;;;;8.51;68.68;101790.63;4931869;29;20031;-81
2021/03/28 07:12:05;;;;;;;24.58;17.35;;;;;;;8.72;67.80;101785.09;4932068;29;20138;-83
2021/03/28 07:15:08;;;;;;;22.02;15.07;;;;;;;8.88;65.94;101794.72;4932054;29;20040;-82
2021/03/28 07:17:58;;;;;;;26.63;17.50;;;;;;;9.04;66.34;101788.88;4930930;29;20090;-81
2021/03/28 07:20:32;;;;;;;23.83;17.00;;;;;;;8.99;63.61;101746.50;4923755;29;20042;-82
2021/03/28 07:23:28;;;;;;;21.02;15.63;;;;;;;9.05;63.87;101736.59;4933614;28;20048;-83
2021/03/28 07:26:12;;;;;;;20.40;14.60;;;;;;;9.59;60.15;101782.88;4967317;28;20513;-83
2021/03/28 07:29:10;;;;;;;16.60;11.70;;;;;;;9.55;55.09;101787.81;4985354;28;20064;-84
2021/03/28 07:31:41;;;;;;;16.20;11.68;;;;;;;9.54;54.46;101775.75;4996052;28;20038;-85
2021/03/28 07:34:44;;;;;;;22.42;12.95;;;;;;;9.69;57.66;101780.06;4963514;28;20031;-82
2021/03/28 07:37:46;;;;;;;17.58;12.70;;;;;;;10.02;55.97;101773.47;4962227;28;20085;-83
2021/03/28 07:40:56;;;;;;;18.08;11.75;;;;;;;10.31;51.98;101765.69;4995436;28;20114;-86
2021/03/28 07:43:52;;;;;;;15.20;11.07;;;;;;;10.76;49.01;101773.47;4992610;28;20045;-83
2021/03/28 07:46:36;;;;;;;14.35;10.57;;;;;;;10.57;48.82;101704.41;4996699;28;20041;-86
2021/03/28 07:49:17;;;;;;;16.40;10.98;;;;;;;11.07;48.54;101776.09;4992268;28;20527;-83
2021/03/28 07:52:01;;;;;;;16.83;10.93;;;;;;;10.82;49.25;101772.13;4960336;28;20137;-86
2021/03/28 07:54:44;;;;;;;14.55;10.48;;;;;;;11.11;49.25;101765.09;4977506;28;20053;-86
2021/03/28 07:57:23;;;;;;;17.85;10.98;;;;;;;10.78;49.67;101694.34;4964209;28;20420;-83
2021/03/28 07:59:59;;;;;;;18.95;10.65;;;;;;;11.09;49.55;101758.06;4994435;28;20035;-84
2021/03/28 08:02:56;;;;;;;15.68;10.88;;;;;;;10.34;48.55;101592.91;4962297;28;20069;-85
2021/03/28 08:05:35;;;;;;;14.45;9.90;;;;;;;11.14;48.85;101726.53;4993763;28;20142;-83
2021/03/28 08:08:28;;;;;;;15.63;9.80;;;;;;;10.59;48.43;101599.47;4999263;28;20116;-84
2021/03/28 08:11:30;;;;;;;16.42;10.77;;;;;;;11.42;47.75;101696.09;5043007;28;20112;-84
2021/03/28 08:14:25;;;;;;;14.55;11.15;;;;;;;11.77;47.39;101761.75;5008388;28;20049;-85
2021/03/28 08:17:03;;;;;;;14.02;9.95;;;;;;;11.76;47.01;101755.69;5030577;28;20103;-85
2021/03/28 08:20:02;;;;;;;13.88;10.20;;;;;;;12.10;47.84;101754.88;5013777;28;20039;-85
2021/03/28 08:23:05;;;;;;;15.57;10.18;;;;;;;12.31;46.52;101751.59;5031363;28;20032;-83
2021/03/28 08:26:01;;;;;;;13.50;9.55;;;;;;;12.53;46.52;101750.09;5014502;28;20504;-88
2021/03/28 08:28:58;;;;;;;13.63;9.98;;;;;;;12.74;45.53;101724.34;5030093;28;20040;-87
2021/03/28 08:31:43;;;;;;;15.57;9.70;;;;;;;12.88;45.71;101741.44;5029263;28;20025;-84
2021/03/28 08:34:20;;;;;;;12.18;8.98;;;;;;;12.90;44.13;101738.94;5014139;28;20037;-85
2021/03/28 08:37:13;;;;;;;12.30;9.05;;;;;;;12.81;44.34;101730.69;5012635;28;20218;-87
2021/03/28 08:39:57;;;;;;;15.57;11.70;;;;;;;13.11;44.54;101731.28;5013074;28;20029;-87
2021/03/28 08:42:36;;;;;;;17.77;9.13;;;;;;;12.60;43.02;101672.75;5012895;28;20546;-82
2021/03/28 08:45:23;;;;;;;11.98;7.97;;;;;;;12.83;44.27;101679.84;5047148;28;20029;-87
2021/03/28 08:47:57;;;;;;;15.13;9.48;;;;;;;13.39;43.76;101717.91;5043650;28;20025;-85
2021/03/28 08:50:42;;;;;;;21.15;12.48;;;;;;;13.75;42.83;101727.28;5043581;28;20048;-87
2021/03/28 08:53:38;;;;;;;14.13;8.75;;;;;;;13.72;42.45;101716.75;5068045;28;20035;-89
2021/03/28 08:56:13;;;;;;;12.02;8.52;;;;;;;13.49;42.24;101669.91;5044075;28;20029;-89
2021/03/28 08:58:52;;;;;;;12.63;8.68;;;;;;;13.90;41.70;101708.88;5043849;28;20410;-89
2021/03/28 09:01:39;;;;;;;12.18;8.77;;;;;;;13.99;41.54;101714.47;5043532;28;20028;-89
2021/03/28 09:04:46;;;;;;;12.27;8.18;;;;;;;13.98;40.82;101717.91;5043731;28;20033;-88
2021/03/28 09:07:33;;;;;;;14.07;7.90;;;;;;;14.01;40.53;101694.66;5043729;28;20035;-89
2021/03/28 09:10:26;;;;;;;12.15;8.05;;;;;;;14.46;40.73;101716.41;4986730;28;20037;-87
2021/03/28 09:13:21;;;;;;;11.55;7.85;;;;;;;14.46;40.51;101716.41;4983328;28;20593;-89
2021/03/28 09:15:55;;;;;;;10.75;7.70;;;;;;;14.61;39.58;101705.75;4966118;28;20133;-88
2021/03/28 09:19:08;;;;;;;11.93;8.48;;;;;;;14.65;40.15;101664.38;4995021;28;20034;-90
2021/03/28 09:22:18;;;;;;;13.77;7.95;;;;;;;15.02;39.60;101694.41;4922523;29;20046;-87
2021/03/28 09:25:12;;;;;;;12.10;7.95;;;;;;;14.91;38.40;101690.50;4867822;29;20040;-89
2021/03/28 09:27:50;;;;;;;11.63;8.02;;;;;;;14.99;39.02;101696.00;4868870;29;20072;-88
2021/03/28 09:30:42;;;;;;;10.50;7.72;;;;;;;15.16;39.44;101691.44;4869139;29;20045;-90
2021/03/28 09:33:28;;;;;;;10.55;7.53;;;;;;;15.12;38.61;101638.41;4868548;29;20041;-92
2021/03/28 09:35:54;;;;;;;10.73;8.15;;;;;;;15.43;37.67;101636.06;4867945;29;20124;-91
2021/03/28 09:38:57;;;;;;;11.45;7.85;;;;;;;15.97;37.55;101670.06;4869328;29;20523;-93
2021/03/28 09:41:41;;;;;;;10.25;7.43;;;;;;;16.15;37.17;101679.38;4867656;29;20033;-92
2021/03/28 09:44:22;;;;;;;11.88;6.72;;;;;;;15.82;36.18;101657.41;4866953;29;20041;-90
2021/03/28 09:47:06;;;;;;;10.27;7.95;;;;;;;16.08;36.91;101670.44;4869027;29;20128;-92
2021/03/28 09:50:01;;;;;;;10.25;7.15;;;;;;;16.44;36.48;101663.78;4876570;29;20045;-86
2021/03/28 09:52:38;;;;;;;9.75;7.65;;;;;;;16.53;38.07;101660.59;4877479;29;20029;-91
2021/03/28 09:55:12;;;;;;;10.25;6.93;;;;;;;16.51;35.37;101605.81;4909931;29;20036;-92
2021/03/28 09:58:05;;;;;;;10.55;7.97;;;;;;;17.02;35.28;101646.44;4937110;29;20074;-90
2021/03/28 10:01:01;;;;;;;12.40;7.75;;;;;;;16.80;36.35;101640.56;4997560;28;20052;-88
2021/03/28 10:03:39;;;;;;;12.52;7.72;;;;;;;17.02;35.73;101650.81;5046364;28;20029;-90
2021/03/28 10:06:12;;;;;;;11.77;8.10;;;;;;;16.88;35.47;101650.38;5043223;28;20064;-92
2021/03/28 10:08:47;;;;;;;11.57;7.85;;;;;;;16.98;35.25;101645.50;5038004;28;20040;-93
2021/03/28 10:11:18;;;;;;;10.63;8.07;;;;;;;17.26;35.58;101641.06;5045825;28;20041;-93
2021/03/28 10:13:47;;;;;;;13.15;7.22;;;;;;;16.95;35.27;101566.28;5027176;28;20131;-92
2021/03/28 10:16:12;;;;;;;8.75;7.07;;;;;;;17.25;35.37;101597.53;5027527;28;20041;-91
2021/03/28 10:19:05;;;;;;;8.98;7.13;;;;;;;17.07;35.27;101650.13;5031139;28;20124;-92
2021/03/28 10:22:25;;;;;;;14.40;9.73;;;;;;;17.03;35.90;101611.69;5028985;28;20040;-93
2021/03/28 10:25:28;;;;;;;28.30;15.73;;;;;;;17.53;35.65;101639.19;4951519;29;20041;-94
2021/03/28 10:28:34;;;;;;;10.05;8.13;;;;;;;17.61;35.46;101646.38;4954552;28;20031;-91
2021/03/28 10:31:19;;;;;;;12.25;8.52;;;;;;;17.89;34.50;101631.41;4952678;29;20097;-94
2021/03/28 10:34:13;;;;;;;12.50;8.07;;;;;;;18.15;34.64;101626.00;4955050;28;20169;-93
2021/03/28 10:37:01;;;;;;;11.23;8.13;;;;;;;17.79;34.88;101558.91;4933902;29;20046;-94
2021/03/28 10:40:18;;;;;;;11.48;8.13;;;;;;;17.81;34.01;101559.81;4867889;29;20159;-96
2021/03/28 10:42:54;;;;;;;12.38;7.45;;;;;;;18.26;34.70;101606.22;4830074;29;20132;-95
2021/03/28 10:45:32;;;;;;;11.38;6.75;;;;;;;18.20;32.55;101613.91;4839998;29;20138;-95
2021/03/28 10:48:29;;;;;;;9.93;6.95;;;;;;;18.30;33.87;101603.69;4866100;29;20046;-94
2021/03/28 10:51:52;;;;;;;13.18;9.13;;;;;;;18.64;32.88;101589.66;4872972;29;20045;-95
2021/03/28 10:55:12;;;;;;;12.10;8.57;;;;;;;19.11;31.59;101601.09;4821948;29;20038;-95
2021/03/28 10:58:09;;;;;;;10.77;7.40;;;;;;;19.28;30.98;101596.16;4826965;29;20045;-94
2021/03/28 11:01:01;;;;;;;8.52;6.63;;;;;;;19.40;30.85;101599.94;4846749;29;20574;-94
2021/03/28 11:04:04;;;;;;;8.95;6.70;;;;;;;19.33;30.37;101594.56;4846033;29;20441;-94
2021/03/28 11:07:07;;;;;;;22.60;12.05;;;;;;;19.62;29.71;101589.81;4834802;29;20573;-81
2021/03/28 11:09:43;;;;;;;14.13;9.13;;;;;;;19.46;30.82;101577.31;4832269;29;20042;-88
2021/03/28 11:12:17;;;;;;;10.57;8.32;;;;;;;19.63;30.92;101588.09;4854669;29;20057;-86
2021/03/28 11:14:57;;;;;;;12.48;8.77;;;;;;;19.58;30.67;101579.25;4838836;29;20046;-84
2021/03/28 11:17:38;;;;;;;10.38;6.70;;;;;;;19.69;29.47;101560.25;4869354;29;20488;-87
2021/03/28 11:20:18;;;;;;;14.35;11.80;;;;;;;20.03;29.27;101571.31;4875199;29;20117;-87
2021/03/28 11:22:50;;;;;;;14.45;10.18;;;;;;;20.10;28.12;101572.31;4875168;29;20047;-83
2021/03/28 11:25:22;;;;;;;10.13;7.60;;;;;;;20.21;28.54;101546.22;4938156;28;20468;-85
2021/03/28 11:28:14;;;;;;;7.30;6.13;;;;;;;20.41;27.25;101562.28;4983712;28;20046;-86
2021/03/28 11:30:45;;;;;;;7.38;5.80;;;;;;;20.36;27.59;101558.66;5007147;28;20021;-86
2021/03/28 11:33:10;;;;;;;10.30;6.15;;;;;;;20.17;27.99;101495.47;4989540;28;20033;-84
2021/03/28 11:35:46;;;;;;;7.72;6.05;;;;;;;20.66;27.90;101544.19;4990907;28;20403;-84
2021/03/28 11:38:18;;;;;;;8.20;6.30;;;;;;;20.41;26.28;101499.31;4992469;28;20053;-85
2021/03/28 11:40:52;;;;;;;13.30;6.68;;;;;;;20.77;27.56;101540.03;4992414;28;20021;-84
2021/03/28 11:43:29;;;;;;;12.52;8.98;;;;;;;20.87;26.51;101532.25;5002118;28;20138;-83
2021/03/28 11:46:04;;;;;;;10.32;6.45;;;;;;;20.76;25.49;101532.09;4990556;28;20030;-85
2021/03/28 11:48:33;;;;;;;8.25;5.25;;;;;;;20.36;24.47;101527.19;5012286;28;20515;-84
2021/03/28 11:51:23;;;;;;;7.80;5.65;;;;;;;20.35;25.56;101531.59;5015438;28;20025;-84
2021/03/28 11:54:08;;;;;;;20.75;17.48;;;;;;;20.74;23.89;101520.72;5007761;28;20049;-86
2021/03/28 11:56:43;;;;;;;8.27;6.00;;;;;;;20.78;23.54;101522.53;4946055;28;20074;-84
2021/03/28 11:59:22;;;;;;;10.52;7.07;;;;;;;20.75;26.36;101523.38;4973992;28;20088;-84
2021/03/28 12:01:59;;;;;;;14.50;6.38;;;;;;;20.88;25.33;101521.75;4994762;28;20084;-82
2021/03/28 12:04:26;;;;;;;7.80;5.50;;;;;;;20.85;25.76;101517.34;4978964;28;20092;-83
2021/03/28 12:07:16;;;;;;;8.88;5.70;;;;;;;20.63;25.83;101516.19;4994474;28;20037;-83
2021/03/28 12:10:10;;;;;;;9.80;6.50;;;;;;;20.82;24.75;101514.72;4994903;28;20037;-84
2021/03/28 12:12:47;;;;;;;7.70;5.88;;;;;;;20.58;25.84;101512.63;4993493;28;20579;-83
2021/03/28 12:15:43;;;;;;;7.75;5.50;;;;;;;20.52;25.40;101516.06;4978168;28;20046;-85
2021/03/28 12:18:14;;;;;;;8.55;5.90;;;;;;;20.40;26.01;101515.91;4993713;28;20587;-82
2021/03/28 12:20:40;;;;;;;10.88;5.93;;;;;;;20.27;26.12;101506.13;4978856;28;20038;-84
2021/03/28 12:23:22;;;;;;;8.13;5.93;;;;;;;20.55;25.59;101506.47;4976693;28;20467;-75
2021/03/28 12:26:06;;;;;;;7.30;5.53;;;;;;;20.31;25.93;101505.28;4995667;28;20523;-85
2021/03/28 12:28:48;;;;;;;11.60;8.75;;;;;;;20.54;24.68;101481.97;4976046;28;20039;-86
2021/03/28 12:31:35;;;;;;;23.85;15.25;;;;;;;20.85;24.18;101490.25;4956969;28;20049;-85
2021/03/28 12:34:28;;;;;;;15.23;11.85;;;;;;;20.92;24.61;101496.41;4965226;28;20042;-82
2021/03/28 12:37:08;;;;;;;10.57;7.13;;;;;;;21.04;24.51;101493.94;4977697;28;20077;-81
2021/03/28 12:39:43;;;;;;;14.32;6.50;;;;;;;21.24;24.53;101488.00;4993016;28;20038;-87